Time;durP1;ratioP1;P1;durP2;ratioP2;P2;SDS_P1;SDS_P2;PMS_P1;PMS_P2;Temp;Humidity;BMP_temperature;BMP_pressure;BME280_temperature;BME280_humidity;BME280_pressure;Samples;Min_cycle;Max_cycle;Signal;HPM_P1;HPM_P2
2022/11/16 00:02:18;;;;;;;14.10;9.45;;;12.40;99.90;;;;;;4773952;30;20078;-71
2022/11/16 00:04:43;;;;;;;15.85;9.75;;;12.30;99.90;;;;;;4772907;30;20039;-71
2022/11/16 00:07:09;;;;;;;14.40;9.82;;;12.20;99.90;;;;;;4773987;30;20445;-71
2022/11/16 00:09:35;;;;;;;17.33;10.57;;;12.20;99.90;;;;;;4774215;30;20055;-72
2022/11/16 00:12:04;;;;;;;14.00;9.57;;;12.10;99.90;;;;;;4757763;30;20104;-71
2022/11/16 00:14:32;;;;;;;14.95;10.30;;;12.10;99.90;;;;;;4773906;30;20039;-71
2022/11/16 00:16:59;;;;;;;16.00;11.50;;;12.10;99.90;;;;;;4773660;30;20035;-71
2022/11/16 00:19:25;;;;;;;19.00;11.98;;;12.10;99.90;;;;;;4773522;30;20126;-72
2022/11/16 00:21:52;;;;;;;18.77;12.18;;;12.10;99.90;;;;;;4773789;30;20043;-71
2022/11/16 00:24:20;;;;;;;21.70;12.68;;;12.20;99.90;;;;;;4773518;30;20039;-72
2022/11/16 00:26:46;;;;;;;15.63;10.60;;;12.10;99.90;;;;;;4773354;30;20098;-71
2022/11/16 00:29:19;;;;;;;17.45;12.13;;;12.10;99.90;;;;;;4773712;30;20055;-71
2022/11/16 00:31:46;;;;;;;16.85;12.15;;;12.20;99.90;;;;;;4773756;30;20108;-71
2022/11/16 00:34:12;;;;;;;19.08;11.75;;;12.20;99.90;;;;;;4773466;30;20044;-71
2022/11/16 00:36:38;;;;;;;21.02;13.70;;;12.20;99.90;;;;;;4773467;30;20411;-71
2022/11/16 00:39:03;;;;;;;16.63;11.80;;;12.30;99.90;;;;;;4773296;30;20127;-71
2022/11/16 00:41:29;;;;;;;15.75;12.35;;;12.20;99.90;;;;;;4772458;30;20067;-71
2022/11/16 00:43:55;;;;;;;20.38;13.57;;;12.30;99.90;;;;;;4773444;30;20039;-72
2022/11/16 00:46:21;;;;;;;18.27;12.68;;;12.30;99.90;;;;;;4773417;30;20051;-71
2022/11/16 00:48:46;;;;;;;22.55;13.73;;;12.20;99.90;;;;;;4773548;30;20108;-71
2022/11/16 00:51:12;;;;;;;15.93;11.63;;;12.20;99.90;;;;;;4772900;30;20040;-71
2022/11/16 00:53:38;;;;;;;21.15;12.35;;;12.20;99.90;;;;;;4773194;30;20035;-71
2022/11/16 00:56:04;;;;;;;25.38;14.70;;;12.20;99.90;;;;;;4774429;30;20047;-71
2022/11/16 00:58:30;;;;;;;19.30;12.98;;;12.30;99.90;;;;;;4777057;30;20048;-71
2022/11/16 01:00:56;;;;;;;18.92;13.48;;;12.30;99.90;;;;;;4776894;30;20035;-71
2022/11/16 01:03:21;;;;;;;19.70;13.50;;;12.40;99.90;;;;;;4776894;30;20065;-71
2022/11/16 01:05:47;;;;;;;21.00;14.45;;;12.40;99.90;;;;;;4776001;30;20408;-71
2022/11/16 01:08:13;;;;;;;16.02;11.23;;;12.40;99.90;;;;;;4776593;30;20046;-72
2022/11/16 01:10:40;;;;;;;16.50;11.73;;;12.20;99.90;;;;;;4775741;30;20083;-71
2022/11/16 01:13:06;;;;;;;25.83;14.85;;;12.20;99.90;;;;;;4775893;30;20044;-71
2022/11/16 01:15:32;;;;;;;26.02;14.02;;;12.40;99.90;;;;;;4776890;30;20043;-71
2022/11/16 01:17:58;;;;;;;19.73;13.65;;;12.30;99.90;;;;;;4776526;30;20050;-71
2022/11/16 01:20:28;;;;;;;17.20;12.43;;;12.20;99.90;;;;;;4776167;30;20071;-71
2022/11/16 01:22:54;;;;;;;23.40;14.65;;;12.30;99.90;;;;;;4776527;30;20103;-74
2022/11/16 01:25:20;;;;;;;22.33;14.30;;;12.30;99.90;;;;;;4776662;30;20047;-72
2022/11/16 01:27:46;;;;;;;18.38;12.05;;;12.50;99.90;;;;;;4776426;30;20059;-71
2022/11/16 01:30:14;;;;;;;19.52;12.07;;;12.50;99.90;;;;;;4776260;30;20450;-71
2022/11/16 01:32:40;;;;;;;20.13;13.15;;;12.50;99.90;;;;;;4776301;30;20430;-71
2022/11/16 01:35:06;;;;;;;17.17;11.63;;;12.50;99.90;;;;;;4776355;30;20147;-71
2022/11/16 01:37:32;;;;;;;17.30;11.23;;;12.50;99.90;;;;;;4775292;30;20077;-71
2022/11/16 01:39:58;;;;;;;19.73;14.25;;;12.40;99.90;;;;;;4776461;30;20036;-71
2022/11/16 01:42:27;;;;;;;16.50;12.35;;;12.30;99.90;;;;;;4776136;30;20173;-71
2022/11/16 01:44:58;;;;;;;18.67;12.68;;;12.30;99.90;;;;;;4775060;30;20104;-71
2022/11/16 01:47:24;;;;;;;22.30;13.77;;;12.40;99.90;;;;;;4776189;30;20039;-71
2022/11/16 01:50:07;;;;;;;16.90;11.30;;;12.40;99.90;;;;;;4774618;30;20346;-72
2022/11/16 01:52:35;;;;;;;14.75;10.30;;;12.40;99.90;;;;;;4775199;30;20177;-72
2022/11/16 01:55:01;;;;;;;21.33;13.65;;;12.50;99.90;;;;;;4774999;30;20185;-71
2022/11/16 01:57:34;;;;;;;22.98;13.20;;;12.50;99.90;;;;;;4774854;30;20040;-71
2022/11/16 02:00:03;;;;;;;20.08;12.48;;;12.50;99.90;;;;;;4775952;30;20039;-71
2022/11/16 02:02:29;;;;;;;14.13;10.80;;;12.40;99.90;;;;;;4774881;30;20445;-71
2022/11/16 02:04:56;;;;;;;15.63;10.18;;;12.40;99.90;;;;;;4775982;30;20054;-71
2022/11/16 02:09:52;;;;;;;18.98;11.82;;;12.40;99.90;;;;;;4775254;30;20322;-71
2022/11/16 02:11:00;;;;;;;16.70;10.90;;;12.50;99.90;;;;;;4775871;30;20051;-71
2022/11/16 02:13:41;;;;;;;13.85;9.52;;;12.50;99.90;;;;;;4775720;30;20092;-71
2022/11/16 02:16:15;;;;;;;16.95;11.25;;;12.50;99.90;;;;;;4775740;30;20042;-71
2022/11/16 02:18:54;;;;;;;14.57;10.18;;;12.60;99.90;;;;;;4775615;30;20056;-71
2022/11/16 02:21:41;;;;;;;19.65;12.18;;;12.70;99.90;;;;;;4775074;30;20434;-71
2022/11/16 02:24:34;;;;;;;15.88;10.32;;;12.80;99.90;;;;;;4774466;30;20435;-71
2022/11/16 02:27:18;;;;;;;17.85;11.80;;;12.70;99.90;;;;;;4775602;30;20348;-71
2022/11/16 02:29:50;;;;;;;17.00;11.43;;;12.80;99.90;;;;;;4775369;30;20367;-71
2022/11/16 02:32:42;;;;;;;13.13;9.38;;;12.70;99.90;;;;;;4775690;30;20318;-71
2022/11/16 02:35:26;;;;;;;20.95;12.07;;;12.70;99.90;;;;;;4774423;30;20410;-71
2022/11/16 02:38:17;;;;;;;16.63;10.63;;;12.70;99.90;;;;;;4775402;30;20082;-71
2022/11/16 02:40:47;;;;;;;18.95;12.02;;;12.60;99.90;;;;;;4774955;30;20051;-71
2022/11/16 02:43:20;;;;;;;21.23;11.55;;;12.40;99.90;;;;;;4774265;30;20394;-71
2022/11/16 02:45:50;;;;;;;14.57;10.20;;;12.50;99.90;;;;;;4774185;30;20047;-71
2022/11/16 02:48:32;;;;;;;14.18;9.95;;;12.60;99.90;;;;;;4774277;30;20056;-71
2022/11/16 02:50:57;;;;;;;12.70;8.40;;;12.60;99.90;;;;;;4773792;30;20043;-71
2022/11/16 02:53:24;;;;;;;16.73;10.35;;;12.60;99.90;;;;;;4774150;30;20126;-71
2022/11/16 02:55:50;;;;;;;13.40;9.23;;;12.50;99.90;;;;;;4774993;30;20487;-71
2022/11/16 02:58:20;;;;;;;18.17;11.52;;;12.50;99.90;;;;;;4775208;30;20047;-71
2022/11/16 03:01:00;;;;;;;11.55;8.90;;;12.60;99.90;;;;;;4773883;30;20147;-71
2022/11/16 03:03:34;;;;;;;16.88;11.68;;;12.40;99.90;;;;;;4775188;30;20068;-71
2022/11/16 03:06:08;;;;;;;12.25;8.60;;;12.50;99.90;;;;;;4774812;30;20423;-71
2022/11/16 03:08:40;;;;;;;11.80;8.70;;;12.50;99.90;;;;;;4775127;30;20506;-71
2022/11/16 03:13:56;;;;;;;;;;;12.50;99.90;;;;;;4774408;30;20048;-71
2022/11/16 03:16:27;;;;;;;19.90;11.73;;;12.60;99.90;;;;;;4774903;30;19917;-71
2022/11/16 03:18:55;;;;;;;13.82;9.40;;;12.40;99.90;;;;;;4774238;30;20048;-71
2022/11/16 03:21:42;;;;;;;13.88;9.00;;;12.50;99.90;;;;;;4773765;30;20047;-71
2022/11/16 03:24:08;;;;;;;15.00;9.88;;;12.60;99.90;;;;;;4758737;30;20102;-71
2022/11/16 03:26:57;;;;;;;20.13;12.30;;;12.50;99.90;;;;;;4773178;30;20122;-71
2022/11/16 03:29:30;;;;;;;17.38;11.77;;;12.50;99.90;;;;;;4773387;30;20052;-70
2022/11/16 03:32:15;;;;;;;22.30;13.05;;;12.50;99.90;;;;;;4773379;30;20058;-71
2022/11/16 03:34:45;;;;;;;15.88;10.95;;;12.50;99.90;;;;;;4774294;30;20043;-71
2022/11/16 03:37:12;;;;;;;24.45;10.40;;;12.40;99.90;;;;;;4773869;30;20518;-71
2022/11/16 03:39:39;;;;;;;14.93;10.43;;;12.60;99.90;;;;;;4773693;30;20056;-70
2022/11/16 03:42:09;;;;;;;17.42;11.27;;;12.60;99.90;;;;;;4774081;30;20048;-71
2022/11/16 03:44:37;;;;;;;20.17;11.98;;;12.60;99.90;;;;;;4774227;30;20078;-71
2022/11/16 03:47:03;;;;;;;18.70;11.82;;;12.50;99.90;;;;;;4774260;30;20127;-71
2022/11/16 03:49:30;;;;;;;21.42;12.70;;;12.40;99.90;;;;;;4773911;30;20131;-71
2022/11/16 03:51:56;;;;;;;21.48;13.20;;;12.50;99.90;;;;;;4773591;30;20047;-71
2022/11/16 03:54:22;;;;;;;18.77;10.43;;;12.40;99.90;;;;;;4774095;30;20048;-71
2022/11/16 03:56:48;;;;;;;22.85;12.60;;;12.50;99.90;;;;;;4773859;30;20500;-70
2022/11/16 03:59:14;;;;;;;15.63;10.60;;;12.50;99.90;;;;;;4757778;30;20043;-71
2022/11/16 04:01:39;;;;;;;16.90;11.45;;;12.30;99.90;;;;;;4772862;30;20046;-71
2022/11/16 04:04:05;;;;;;;22.95;12.82;;;12.30;99.90;;;;;;4773780;30;20131;-70
2022/11/16 04:25:53;;;;;;;23.42;12.80;;;12.20;99.90;;;;;;4773649;30;20508;-71
2022/11/16 04:28:23;;;;;;;15.45;10.98;;;12.20;99.90;;;;;;4773252;30;20098;-74
2022/11/16 04:39:06;;;;;;;29.63;15.00;;;12.40;99.90;;;;;;4773631;30;20098;-71
2022/11/16 04:44:17;;;;;;;28.67;16.08;;;12.30;99.90;;;;;;4773616;30;20143;-71
2022/11/16 04:49:27;;;;;;;21.20;14.05;;;12.40;99.90;;;;;;4773250;30;20531;-72
2022/11/16 04:51:53;;;;;;;23.63;14.52;;;12.30;99.90;;;;;;4773106;30;20131;-71
2022/11/16 04:54:18;;;;;;;24.98;15.35;;;12.40;99.90;;;;;;4773319;30;20048;-71
2022/11/16 04:56:44;;;;;;;29.40;15.82;;;12.50;99.90;;;;;;4773376;30;20327;-71
2022/11/16 04:59:10;;;;;;;26.65;15.43;;;12.50;99.90;;;;;;4773125;30;20449;-71
2022/11/16 05:04:20;;;;;;;19.02;13.82;;;12.40;99.90;;;;;;4773243;30;20054;-71
2022/11/16 05:06:46;;;;;;;31.20;16.05;;;12.40;99.90;;;;;;4773328;30;20114;-71
2022/11/16 05:09:13;;;;;;;18.10;12.77;;;12.30;99.90;;;;;;4773037;30;20044;-71
2022/11/16 05:11:38;;;;;;;29.27;16.88;;;12.30;99.90;;;;;;4772975;30;20393;-70
2022/11/16 05:14:05;;;;;;;22.40;13.70;;;12.20;99.90;;;;;;4772170;30;20040;-71
2022/11/16 05:16:31;;;;;;;20.67;13.60;;;12.20;99.90;;;;;;4772801;30;20055;-71
2022/11/16 05:21:41;;;;;;;29.02;17.00;;;12.40;99.90;;;;;;4772191;30;20338;-71
2022/11/16 05:26:51;;;;;;;23.50;15.93;;;12.40;99.90;;;;;;4772958;30;20093;-71
2022/11/16 05:29:17;;;;;;;33.65;18.35;;;12.50;99.90;;;;;;4773196;30;20048;-71
2022/11/16 05:31:43;;;;;;;26.13;16.02;;;12.50;99.90;;;;;;4773300;30;20429;-71
2022/11/16 05:34:09;;;;;;;28.92;17.65;;;12.60;99.90;;;;;;4773012;30;20043;-71
2022/11/16 05:36:34;;;;;;;31.90;17.85;;;12.60;99.90;;;;;;4772201;30;20362;-71
2022/11/16 05:39:00;;;;;;;25.42;16.55;;;12.50;99.90;;;;;;4772967;30;20101;-70
2022/11/16 05:41:26;;;;;;;29.30;17.98;;;12.50;99.90;;;;;;4772913;30;20419;-71
2022/11/16 05:43:53;;;;;;;29.65;17.77;;;12.50;99.90;;;;;;4774938;30;20040;-71
2022/11/16 05:46:19;;;;;;;29.13;17.20;;;12.50;99.90;;;;;;4776200;30;20039;-71
2022/11/16 05:48:45;;;;;;;23.13;15.07;;;12.40;99.90;;;;;;4775418;30;20426;-71
2022/11/16 05:51:10;;;;;;;36.35;19.58;;;12.50;99.90;;;;;;4775782;30;20048;-71
2022/11/16 05:53:36;;;;;;;25.50;16.30;;;12.60;99.90;;;;;;4760663;30;20055;-71
2022/11/16 05:56:02;;;;;;;26.55;16.77;;;12.50;99.90;;;;;;4775866;30;20381;-72
2022/11/16 05:58:28;;;;;;;26.13;17.38;;;12.40;99.90;;;;;;4776096;30;20128;-71
2022/11/16 06:00:53;;;;;;;22.85;16.20;;;12.50;99.90;;;;;;4776134;30;20047;-71
2022/11/16 06:03:19;;;;;;;27.25;17.75;;;12.50;99.90;;;;;;4776109;30;20043;-71
2022/11/16 06:05:44;;;;;;;25.42;16.40;;;12.60;99.90;;;;;;4789998;30;20040;-71
2022/11/16 06:08:10;;;;;;;32.72;18.92;;;12.70;99.90;;;;;;4776017;30;20043;-71
2022/11/16 06:10:36;;;;;;;22.08;14.98;;;12.60;99.90;;;;;;4775917;30;20372;-72
2022/11/16 06:13:02;;;;;;;29.98;19.08;;;12.70;99.90;;;;;;4775637;30;20105;-71
2022/11/16 06:15:27;;;;;;;19.98;14.43;;;12.70;99.90;;;;;;4775829;30;20040;-71
2022/11/16 06:17:53;;;;;;;29.33;17.75;;;12.60;99.90;;;;;;4775553;30;20454;-71
2022/11/16 06:20:19;;;;;;;20.60;15.43;;;12.60;99.90;;;;;;4774515;30;20082;-71
2022/11/16 06:22:44;;;;;;;30.77;18.52;;;12.60;99.90;;;;;;4775513;30;20035;-71
2022/11/16 06:25:10;;;;;;;21.52;14.90;;;12.70;99.90;;;;;;4789308;30;20043;-76
2022/11/16 06:27:39;;;;;;;20.42;14.73;;;12.70;99.90;;;;;;4775468;30;20067;-71
2022/11/16 06:30:06;;;;;;;28.02;16.95;;;12.60;99.90;;;;;;4775514;30;20094;-71
2022/11/16 06:32:31;;;;;;;36.13;19.60;;;12.60;99.90;;;;;;4774776;30;20100;-71
2022/11/16 06:34:57;;;;;;;26.90;16.48;;;12.60;99.90;;;;;;4775409;30;20040;-71
2022/11/16 06:37:24;;;;;;;28.85;17.15;;;12.60;99.90;;;;;;4775531;30;20070;-71
2022/11/16 06:39:49;;;;;;;19.00;14.27;;;12.50;99.90;;;;;;4775193;30;20426;-71
2022/11/16 06:42:15;;;;;;;19.40;12.50;;;12.50;99.90;;;;;;4775520;30;20036;-71
2022/11/16 06:44:41;;;;;;;20.80;14.45;;;12.50;99.90;;;;;;4789031;30;20043;-71
2022/11/16 06:47:06;;;;;;;22.17;15.02;;;12.30;99.90;;;;;;4775103;30;20048;-71
2022/11/16 06:49:33;;;;;;;26.60;16.52;;;12.30;99.90;;;;;;4789304;30;20055;-70
2022/11/16 06:51:58;;;;;;;27.27;16.45;;;12.30;99.90;;;;;;4774689;30;20048;-71
2022/11/16 06:54:24;;;;;;;22.88;15.77;;;12.30;99.90;;;;;;4775119;30;20051;-71
2022/11/16 06:56:49;;;;;;;26.08;15.75;;;12.30;99.90;;;;;;4774093;30;20095;-71
2022/11/16 06:59:15;;;;;;;21.75;14.70;;;12.40;99.90;;;;;;4775071;30;20097;-71
2022/11/16 07:01:41;;;;;;;20.98;15.20;;;12.50;99.90;;;;;;4774921;30;20112;-71
2022/11/16 07:04:10;;;;;;;24.15;14.90;;;12.40;99.90;;;;;;4788946;30;20039;-71
2022/11/16 07:06:37;;;;;;;24.70;16.17;;;12.40;99.90;;;;;;4773969;30;20047;-71
2022/11/16 07:09:07;;;;;;;20.63;14.27;;;12.20;99.90;;;;;;4773520;30;20182;-70
2022/11/16 07:11:33;;;;;;;26.65;17.48;;;12.20;99.90;;;;;;4774956;30;20074;-71
2022/11/16 07:13:59;;;;;;;29.05;17.63;;;12.20;99.90;;;;;;4774753;30;20040;-70
2022/11/16 07:16:25;;;;;;;48.72;21.02;;;12.30;99.90;;;;;;4774888;30;20036;-71
2022/11/16 07:18:51;;;;;;;51.50;21.98;;;12.40;99.90;;;;;;4774413;30;20073;-70
2022/11/16 07:21:17;;;;;;;20.00;14.88;;;12.50;99.90;;;;;;4774330;30;20096;-70
2022/11/16 07:23:43;;;;;;;21.48;14.88;;;12.40;99.90;;;;;;4774432;30;20330;-70
2022/11/16 07:26:10;;;;;;;23.17;16.17;;;12.60;99.90;;;;;;4773599;30;20067;-71
2022/11/16 07:28:36;;;;;;;25.58;17.20;;;12.60;99.90;;;;;;4774381;30;20055;-71
2022/11/16 07:31:03;;;;;;;27.38;16.92;;;12.70;99.90;;;;;;4774308;30;20044;-71
2022/11/16 07:33:29;;;;;;;28.33;17.35;;;12.80;99.90;;;;;;4778264;30;20035;-71
2022/11/16 07:36:09;;;;;;;28.27;15.80;;;12.80;99.90;;;;;;4782379;29;20329;-71
2022/11/16 07:38:35;;;;;;;25.20;15.55;;;12.90;99.90;;;;;;4783535;30;20477;-71
2022/11/16 07:41:03;;;;;;;23.88;14.93;;;12.90;99.90;;;;;;4783298;29;20050;-71
2022/11/16 07:43:33;;;;;;;20.85;15.27;;;12.90;99.90;;;;;;4781837;30;20071;-71
2022/11/16 07:46:09;;;;;;;17.85;13.77;;;12.90;99.90;;;;;;4783590;30;20057;-71
2022/11/16 07:48:34;;;;;;;19.40;14.48;;;12.80;99.90;;;;;;4777084;30;20410;-72
2022/11/16 07:51:01;;;;;;;20.27;15.00;;;12.90;99.90;;;;;;4772753;30;20055;-70
2022/11/16 07:53:28;;;;;;;29.10;16.92;;;12.90;99.90;;;;;;4774012;30;20050;-68
2022/11/16 07:55:54;;;;;;;22.08;14.70;;;12.80;99.90;;;;;;4773332;30;20085;-72
2022/11/16 07:58:20;;;;;;;17.75;13.93;;;12.80;99.90;;;;;;4772948;30;20040;-68
2022/11/16 08:00:46;;;;;;;26.27;16.90;;;12.90;99.90;;;;;;4774048;30;20049;-69
2022/11/16 08:03:12;;;;;;;16.27;12.93;;;12.90;99.90;;;;;;4773793;30;20123;-68
2022/11/16 08:05:37;;;;;;;19.00;13.82;;;12.80;99.90;;;;;;4773530;30;20051;-68
2022/11/16 08:08:03;;;;;;;20.30;14.02;;;12.90;99.90;;;;;;4773781;30;20426;-68
2022/11/16 08:10:30;;;;;;;21.67;13.38;;;13.00;99.90;;;;;;4773858;30;20082;-68
2022/11/16 08:12:56;;;;;;;30.10;18.05;;;13.10;99.90;;;;;;4773810;30;20039;-67
2022/11/16 08:15:22;;;;;;;31.15;16.92;;;13.10;99.90;;;;;;4773630;30;20063;-68
2022/11/16 08:17:48;;;;;;;30.67;17.73;;;13.00;99.90;;;;;;4773570;30;20051;-68
2022/11/16 08:20:15;;;;;;;15.93;11.43;;;13.00;99.90;;;;;;4773160;30;20112;-68
2022/11/16 08:22:41;;;;;;;15.10;12.02;;;13.00;99.90;;;;;;4773758;30;20104;-68
2022/11/16 08:25:08;;;;;;;14.18;12.02;;;13.00;99.90;;;;;;4773857;30;20100;-68
2022/11/16 08:27:33;;;;;;;30.08;16.10;;;13.00;99.90;;;;;;4773224;30;20487;-69
2022/11/16 08:30:02;;;;;;;24.23;15.55;;;13.10;99.90;;;;;;4773625;30;20056;-68
2022/11/16 08:32:31;;;;;;;16.60;12.27;;;13.00;99.90;;;;;;4772722;30;20433;-68
2022/11/16 08:34:56;;;;;;;19.65;14.05;;;13.00;99.90;;;;;;4773771;30;20355;-68
2022/11/16 08:37:22;;;;;;;22.08;13.27;;;13.00;99.90;;;;;;4773475;30;20122;-68
2022/11/16 08:39:48;;;;;;;20.40;12.85;;;13.00;99.90;;;;;;4773428;30;20035;-69
2022/11/16 08:42:13;;;;;;;17.65;13.00;;;13.10;99.90;;;;;;4773364;30;20039;-68
2022/11/16 08:44:39;;;;;;;14.15;11.07;;;13.10;99.90;;;;;;4773511;30;20047;-69
2022/11/16 08:47:05;;;;;;;25.90;15.27;;;13.00;99.90;;;;;;4772220;30;20077;-69
2022/11/16 08:49:31;;;;;;;21.15;13.68;;;13.00;99.90;;;;;;4773262;30;20052;-69
2022/11/16 08:51:56;;;;;;;18.42;12.93;;;13.10;99.90;;;;;;4772005;30;20086;-69
2022/11/16 08:54:22;;;;;;;17.67;12.32;;;13.10;99.90;;;;;;4773336;30;20123;-69
2022/11/16 08:56:48;;;;;;;19.13;13.15;;;13.10;99.90;;;;;;4772276;30;20039;-69
2022/11/16 08:59:13;;;;;;;17.15;12.65;;;13.10;99.90;;;;;;4773457;30;20100;-69
2022/11/16 09:01:40;;;;;;;15.93;12.40;;;13.20;99.90;;;;;;4773158;30;20061;-69
2022/11/16 09:04:06;;;;;;;26.58;16.05;;;13.20;99.90;;;;;;4772495;30;20051;-69
2022/11/16 09:06:32;;;;;;;17.33;12.63;;;13.20;99.90;;;;;;4773124;30;20036;-69
2022/11/16 09:08:58;;;;;;;19.65;12.68;;;13.20;99.90;;;;;;4772403;30;20048;-68
2022/11/16 09:11:24;;;;;;;21.75;15.23;;;13.20;99.90;;;;;;4772477;30;20116;-69
2022/11/16 09:13:52;;;;;;;18.55;12.88;;;13.20;99.90;;;;;;4773199;30;20044;-69
2022/11/16 09:16:19;;;;;;;17.60;13.27;;;13.10;99.90;;;;;;4772964;30;20079;-69
2022/11/16 09:18:46;;;;;;;19.35;14.57;;;13.10;99.90;;;;;;4775270;30;20051;-69
2022/11/16 09:21:17;;;;;;;15.20;12.27;;;13.30;99.90;;;;;;4775493;30;20114;-69
2022/11/16 09:23:43;;;;;;;16.70;11.18;;;13.20;99.90;;;;;;4776667;30;20051;-69
2022/11/16 09:26:09;;;;;;;16.67;12.75;;;13.10;99.90;;;;;;4775493;30;20047;-69
2022/11/16 09:28:34;;;;;;;16.85;12.70;;;13.20;99.90;;;;;;4776237;30;20122;-68
2022/11/16 09:31:04;;;;;;;29.10;16.42;;;13.20;99.90;;;;;;4776680;30;20040;-69
2022/11/16 09:33:31;;;;;;;20.27;13.77;;;13.20;99.90;;;;;;4776561;30;20043;-68
2022/11/16 09:36:01;;;;;;;17.67;12.35;;;13.10;99.90;;;;;;4776559;30;20048;-68
2022/11/16 09:38:27;;;;;;;21.42;14.43;;;13.10;99.90;;;;;;4776257;30;20133;-68
2022/11/16 09:40:54;;;;;;;25.08;15.48;;;13.10;99.90;;;;;;4776508;30;20071;-69
2022/11/16 09:43:37;;;;;;;17.88;12.70;;;13.10;99.90;;;;;;4776329;30;20036;-69
2022/11/16 09:46:25;;;;;;;18.40;13.18;;;13.20;99.90;;;;;;4776124;30;20105;-69
2022/11/16 09:48:55;;;;;;;19.88;12.60;;;13.20;99.90;;;;;;4775336;30;20325;-69
2022/11/16 09:51:22;;;;;;;24.35;15.40;;;13.30;99.90;;;;;;4775928;30;20373;-69
2022/11/16 09:54:09;;;;;;;20.30;14.30;;;13.30;99.90;;;;;;4775186;30;20183;-69
2022/11/16 09:56:38;;;;;;;22.38;14.82;;;13.40;99.90;;;;;;4775231;30;20186;-68
2022/11/16 09:59:07;;;;;;;17.65;13.70;;;13.40;99.90;;;;;;4775983;30;20319;-69
2022/11/16 10:01:51;;;;;;;26.15;15.85;;;13.40;99.90;;;;;;4776183;30;20066;-68
2022/11/16 10:04:23;;;;;;;22.80;16.25;;;13.60;99.90;;;;;;4775971;30;20093;-68
2022/11/16 10:06:49;;;;;;;16.65;12.35;;;13.70;99.90;;;;;;4775826;30;20311;-68
2022/11/16 10:09:15;;;;;;;17.35;13.27;;;13.70;99.90;;;;;;4775826;30;20044;-68
2022/11/16 10:12:05;;;;;;;15.68;12.55;;;13.70;99.90;;;;;;4775719;30;20039;-68
2022/11/16 10:15:06;;;;;;;15.60;13.20;;;13.80;99.90;;;;;;4775590;30;20469;-70
2022/11/16 10:17:46;;;;;;;15.70;12.35;;;13.70;99.90;;;;;;4775714;30;20147;-69
2022/11/16 10:20:33;;;;;;;18.77;13.32;;;13.60;99.90;;;;;;4775405;30;20051;-74
2022/11/16 10:22:59;;;;;;;16.60;13.80;;;13.70;99.90;;;;;;4775728;30;20086;-69
2022/11/16 10:25:37;;;;;;;16.77;12.90;;;13.90;99.90;;;;;;4775803;30;20075;-71
2022/11/16 10:28:21;;;;;;;18.08;13.88;;;13.80;99.90;;;;;;4775496;30;20135;-70
2022/11/16 10:31:09;;;;;;;18.90;14.52;;;13.80;99.90;;;;;;4775532;30;20066;-70
2022/11/16 10:33:36;;;;;;;19.63;13.63;;;13.70;99.90;;;;;;4775232;30;20127;-70
2022/11/16 10:36:11;;;;;;;24.65;16.35;;;13.80;99.90;;;;;;4775232;30;20414;-69
2022/11/16 10:38:39;;;;;;;14.38;11.13;;;13.60;99.90;;;;;;4775369;30;20418;-78
2022/11/16 10:41:20;;;;;;;15.40;12.77;;;13.50;99.90;;;;;;4774218;30;20108;-75
2022/11/16 10:43:47;;;;;;;18.48;13.30;;;13.40;99.90;;;;;;4774322;30;20036;-70
2022/11/16 10:46:35;;;;;;;16.23;13.13;;;13.20;99.90;;;;;;4775010;30;20461;-71
2022/11/16 10:49:07;;;;;;;17.42;12.35;;;13.30;99.90;;;;;;4774331;30;20062;-70
2022/11/16 10:51:33;;;;;;;17.40;13.77;;;13.60;99.90;;;;;;4774793;30;20051;-70
2022/11/16 10:53:58;;;;;;;18.73;11.68;;;13.80;99.90;;;;;;4774982;30;20044;-74
2022/11/16 10:56:41;;;;;;;17.63;12.93;;;13.80;99.90;;;;;;4773935;30;20097;-71
2022/11/16 10:59:16;;;;;;;16.80;11.90;;;13.70;99.90;;;;;;4774105;30;20414;-69
2022/11/16 11:01:49;;;;;;;19.83;12.90;;;13.70;99.90;;;;;;4775353;30;20048;-70
2022/11/16 11:04:20;;;;;;;20.33;12.38;;;13.80;99.90;;;;;;4774774;30;20047;-74
2022/11/16 11:06:50;;;;;;;19.45;11.85;;;14.00;99.90;;;;;;4775029;30;20131;-68
2022/11/16 11:09:21;;;;;;;20.25;10.10;;;13.90;99.90;;;;;;4774025;30;20182;-69
2022/11/16 11:15:22;;;;;;;21.65;11.90;;;13.60;99.90;;;;;;4771807;30;20330;-70
2022/11/16 11:18:08;;;;;;;16.87;11.00;;;13.60;99.90;;;;;;4773637;30;20044;-72
2022/11/16 11:20:34;;;;;;;16.47;11.07;;;13.80;99.90;;;;;;4774191;30;20483;-68
2022/11/16 11:23:03;;;;;;;16.13;9.95;;;13.90;99.90;;;;;;4774773;30;20071;-69
2022/11/16 11:25:37;;;;;;;20.00;10.73;;;14.00;99.90;;;;;;4774313;30;20320;-70
2022/11/16 11:28:26;;;;;;;17.05;9.70;;;14.20;99.90;;;;;;4773168;30;20135;-72
2022/11/16 11:31:02;;;;;;;14.98;9.65;;;14.30;99.90;;;;;;4773251;30;20088;-73
2022/11/16 11:33:52;;;;;;;14.70;8.82;;;14.20;99.90;;;;;;4774268;30;20437;-70
2022/11/16 11:36:23;;;;;;;15.98;8.73;;;14.30;99.90;;;;;;4774333;30;20040;-70
2022/11/16 11:39:07;;;;;;;12.25;8.15;;;14.60;99.90;;;;;;4774230;30;20419;-70
2022/11/16 11:41:41;;;;;;;11.40;7.93;;;14.70;99.90;;;;;;4773541;30;20322;-70
2022/11/16 11:44:18;;;;;;;15.40;7.07;;;14.60;99.90;;;;;;4773364;30;20113;-69
2022/11/16 11:47:26;;;;;;;12.55;6.50;;;14.40;99.90;;;;;;4774198;30;20051;-67
2022/11/16 11:50:00;;;;;;;20.05;7.63;;;14.40;99.90;;;;;;4774284;30;20065;-66
2022/11/16 11:52:47;;;;;;;15.30;7.47;;;14.30;99.90;;;;;;4773643;30;20051;-68
2022/11/16 11:55:16;;;;;;;17.45;8.95;;;14.10;99.90;;;;;;4773031;30;20086;-77
2022/11/16 11:57:45;;;;;;;14.15;7.75;;;14.30;99.90;;;;;;4773836;30;20083;-69
2022/11/16 12:00:14;;;;;;;15.25;7.78;;;14.20;99.90;;;;;;4774030;30;20043;-70
2022/11/16 12:03:18;;;;;;;13.82;7.32;;;14.20;99.90;;;;;;4774103;30;20044;-69
2022/11/16 12:06:04;;;;;;;12.57;7.20;;;14.80;99.90;;;;;;4773900;30;20047;-70
2022/11/16 12:08:50;;;;;;;13.15;7.38;;;14.90;99.90;;;;;;4773939;30;20054;-75
2022/11/16 12:11:34;;;;;;;13.32;5.95;;;15.30;99.90;;;;;;4772847;30;20081;-74
2022/11/16 12:14:09;;;;;;;16.67;6.32;;;15.20;99.90;;;;;;4773956;30;20055;-69
2022/11/16 12:17:01;;;;;;;10.43;5.78;;;15.00;99.90;;;;;;4773797;30;20334;-74
2022/11/16 12:19:27;;;;;;;11.45;5.40;;;15.30;99.90;;;;;;4773973;30;20083;-73
2022/11/16 12:22:20;;;;;;;11.20;4.93;;;15.30;99.90;;;;;;4772352;30;20067;-73
2022/11/16 12:24:56;;;;;;;12.23;4.97;;;15.20;99.90;;;;;;4772955;30;20054;-73
2022/11/16 12:27:46;;;;;;;7.35;4.18;;;15.40;99.90;;;;;;4773523;30;20139;-70
2022/11/16 12:30:21;;;;;;;13.80;3.38;;;16.00;99.90;;;;;;4773695;30;20047;-73
2022/11/16 12:33:06;;;;;;;7.20;3.08;;;15.90;99.90;;;;;;4773348;30;20047;-73
2022/11/16 12:35:50;;;;;;;11.88;4.13;;;16.30;99.90;;;;;;4773554;30;20415;-80
2022/11/16 12:38:28;;;;;;;8.23;3.17;;;16.40;99.90;;;;;;4772515;30;20044;-69
2022/11/16 12:41:25;;;;;;;9.63;2.95;;;16.40;99.90;;;;;;4773246;30;20114;-69
2022/11/16 12:44:11;;;;;;;5.72;2.10;;;16.90;99.90;;;;;;4773524;30;20047;-69
2022/11/16 12:47:03;;;;;;;6.95;2.40;;;17.70;99.10;;;;;;4772403;30;20040;-69
2022/11/16 12:49:35;;;;;;;9.18;2.35;;;18.30;98.90;;;;;;4766508;30;20044;-69
2022/11/16 12:52:12;;;;;;;7.38;1.88;;;18.70;98.10;;;;;;4772962;30;20079;-69
2022/11/16 12:54:54;;;;;;;6.80;1.60;;;18.80;98.50;;;;;;4777310;30;20069;-69
2022/11/16 12:57:39;;;;;;;6.68;2.13;;;19.50;97.70;;;;;;4777083;30;20048;-70
2022/11/16 13:00:08;;;;;;;5.03;1.15;;;20.30;97.40;;;;;;4777148;30;20043;-69
2022/11/16 13:03:11;;;;;;;10.40;1.60;;;20.20;96.00;;;;;;4776028;30;20051;-69
2022/11/16 13:05:43;;;;;;;5.45;1.40;;;19.30;96.20;;;;;;4776838;30;20067;-71
2022/11/16 13:08:14;;;;;;;4.72;1.15;;;18.70;97.50;;;;;;4777030;30;20094;-70
2022/11/16 13:10:44;;;;;;;5.97;1.60;;;18.90;97.20;;;;;;4776915;30;20075;-70
2022/11/16 13:13:16;;;;;;;7.10;1.50;;;19.20;96.90;;;;;;4777049;30;20048;-69
2022/11/16 13:15:45;;;;;;;12.50;1.50;;;19.80;96.40;;;;;;4776650;30;20126;-69
2022/11/16 13:18:14;;;;;;;6.93;1.15;;;19.60;96.20;;;;;;4776589;30;20098;-70
2022/11/16 13:21:00;;;;;;;6.80;1.30;;;19.40;96.00;;;;;;4776363;30;20318;-70
2022/11/16 13:23:44;;;;;;;5.53;1.10;;;19.20;95.70;;;;;;4776869;30;20036;-73
2022/11/16 13:26:32;;;;;;;4.13;1.25;;;18.90;96.40;;;;;;4776710;30;20114;-70
2022/11/16 13:29:13;;;;;;;10.50;1.40;;;18.70;96.70;;;;;;4776151;30;20479;-71
2022/11/16 13:31:46;;;;;;;7.35;1.50;;;18.10;96.40;;;;;;4776565;30;20104;-71
2022/11/16 13:34:20;;;;;;;5.60;1.17;;;17.50;96.80;;;;;;4775230;30;20070;-71
2022/11/16 13:36:46;;;;;;;4.35;1.30;;;17.10;97.70;;;;;;4776592;30;20043;-70
2022/11/16 13:39:17;;;;;;;6.50;1.38;;;17.00;98.00;;;;;;4776075;30;20054;-70